sensor_id;sensor_type;location;lat;lon;timestamp;P1;durP1;ratioP1;P2;durP2;ratioP2
64060;SDS011;60147;55.036;73.242;2022-10-17T00:00:17;21.38;;;9.73;;
64060;SDS011;60147;55.036;73.242;2022-10-17T00:02:43;46.03;;;10.65;;
64060;SDS011;60147;55.036;73.242;2022-10-17T00:05:19;46.40;;;9.68;;
64060;SDS011;60147;55.036;73.242;2022-10-17T00:07:44;42.15;;;11.32;;
64060;SDS011;60147;55.036;73.242;2022-10-17T00:10:20;51.03;;;12.73;;
64060;SDS011;60147;55.036;73.242;2022-10-17T00:12:49;91.90;;;15.82;;
64060;SDS011;60147;55.036;73.242;2022-10-17T00:15:19;60.00;;;15.52;;
64060;SDS011;60147;55.036;73.242;2022-10-17T00:17:45;75.78;;;19.83;;
64060;SDS011;60147;55.036;73.242;2022-10-17T00:20:11;60.50;;;20.92;;
64060;SDS011;60147;55.036;73.242;2022-10-17T00:22:47;59.00;;;22.08;;
64060;SDS011;60147;55.036;73.242;2022-10-17T00:25:13;60.60;;;24.80;;
64060;SDS011;60147;55.036;73.242;2022-10-17T00:27:49;51.92;;;23.35;;
64060;SDS011;60147;55.036;73.242;2022-10-17T00:30:15;47.63;;;25.60;;
64060;SDS011;60147;55.036;73.242;2022-10-17T00:32:47;47.85;;;25.02;;
64060;SDS011;60147;55.036;73.242;2022-10-17T00:35:13;48.70;;;26.02;;
64060;SDS011;60147;55.036;73.242;2022-10-17T00:37:50;46.45;;;24.60;;
64060;SDS011;60147;55.036;73.242;2022-10-17T00:40:16;37.80;;;22.55;;
64060;SDS011;60147;55.036;73.242;2022-10-17T00:42:45;39.33;;;22.13;;
64060;SDS011;60147;55.036;73.242;2022-10-17T00:47:43;42.92;;;24.58;;
64060;SDS011;60147;55.036;73.242;2022-10-17T00:50:11;42.33;;;23.60;;
64060;SDS011;60147;55.036;73.242;2022-10-17T00:52:38;41.38;;;23.23;;
64060;SDS011;60147;55.036;73.242;2022-10-17T00:55:09;44.90;;;24.13;;
64060;SDS011;60147;55.036;73.242;2022-10-17T00:57:36;52.83;;;26.75;;
64060;SDS011;60147;55.036;73.242;2022-10-17T01:00:04;34.72;;;21.10;;
64060;SDS011;60147;55.036;73.242;2022-10-17T01:02:36;60.88;;;28.38;;
64060;SDS011;60147;55.036;73.242;2022-10-17T01:05:02;63.55;;;29.05;;
64060;SDS011;60147;55.036;73.242;2022-10-17T01:07:28;87.03;;;31.98;;
64060;SDS011;60147;55.036;73.242;2022-10-17T01:09:54;65.20;;;31.45;;
64060;SDS011;60147;55.036;73.242;2022-10-17T01:12:21;91.50;;;39.17;;
64060;SDS011;60147;55.036;73.242;2022-10-17T01:15:09;80.32;;;38.50;;
64060;SDS011;60147;55.036;73.242;2022-10-17T01:26:18;112.25;;;44.70;;
64060;SDS011;60147;55.036;73.242;2022-10-17T01:31:13;105.32;;;43.38;;
64060;SDS011;60147;55.036;73.242;2022-10-17T01:36:49;97.95;;;41.50;;
64060;SDS011;60147;55.036;73.242;2022-10-17T01:39:39;96.55;;;42.80;;
64060;SDS011;60147;55.036;73.242;2022-10-17T01:42:06;103.63;;;44.28;;
64060;SDS011;60147;55.036;73.242;2022-10-17T01:44:36;89.97;;;42.05;;
64060;SDS011;60147;55.036;73.242;2022-10-17T01:47:08;90.15;;;43.03;;
64060;SDS011;60147;55.036;73.242;2022-10-17T01:49:36;87.72;;;42.30;;
64060;SDS011;60147;55.036;73.242;2022-10-17T01:52:05;92.68;;;45.45;;
64060;SDS011;60147;55.036;73.242;2022-10-17T01:54:36;83.05;;;41.72;;
64060;SDS011;60147;55.036;73.242;2022-10-17T01:57:04;72.38;;;39.53;;
64060;SDS011;60147;55.036;73.242;2022-10-17T01:59:35;74.88;;;37.25;;
64060;SDS011;60147;55.036;73.242;2022-10-17T02:02:04;74.20;;;38.22;;
64060;SDS011;60147;55.036;73.242;2022-10-17T02:04:33;83.05;;;39.15;;
64060;SDS011;60147;55.036;73.242;2022-10-17T02:07:06;78.95;;;39.72;;
64060;SDS011;60147;55.036;73.242;2022-10-17T02:09:32;85.05;;;43.67;;
64060;SDS011;60147;55.036;73.242;2022-10-17T02:17:27;59.10;;;30.30;;
64060;SDS011;60147;55.036;73.242;2022-10-17T02:25:11;62.13;;;27.50;;
64060;SDS011;60147;55.036;73.242;2022-10-17T02:35:29;45.95;;;23.80;;
64060;SDS011;60147;55.036;73.242;2022-10-17T02:37:59;51.10;;;21.77;;
64060;SDS011;60147;55.036;73.242;2022-10-17T02:40:26;46.88;;;21.80;;
64060;SDS011;60147;55.036;73.242;2022-10-17T02:42:59;44.60;;;20.75;;
64060;SDS011;60147;55.036;73.242;2022-10-17T02:45:28;43.10;;;21.40;;
64060;SDS011;60147;55.036;73.242;2022-10-17T02:48:23;43.13;;;20.75;;
64060;SDS011;60147;55.036;73.242;2022-10-17T02:53:16;41.00;;;20.52;;
64060;SDS011;60147;55.036;73.242;2022-10-17T02:55:48;35.95;;;17.92;;
64060;SDS011;60147;55.036;73.242;2022-10-17T02:58:17;38.10;;;19.50;;
64060;SDS011;60147;55.036;73.242;2022-10-17T03:00:45;36.70;;;19.50;;
64060;SDS011;60147;55.036;73.242;2022-10-17T03:05:42;42.08;;;18.83;;
64060;SDS011;60147;55.036;73.242;2022-10-17T03:08:08;42.08;;;20.83;;
64060;SDS011;60147;55.036;73.242;2022-10-17T03:10:33;46.55;;;22.73;;
64060;SDS011;60147;55.036;73.242;2022-10-17T03:13:00;46.28;;;23.58;;
64060;SDS011;60147;55.036;73.242;2022-10-17T03:15:26;46.45;;;23.45;;
64060;SDS011;60147;55.036;73.242;2022-10-17T03:17:51;49.38;;;25.17;;
64060;SDS011;60147;55.036;73.242;2022-10-17T03:20:18;51.50;;;24.85;;
64060;SDS011;60147;55.036;73.242;2022-10-17T03:22:44;51.65;;;26.60;;
64060;SDS011;60147;55.036;73.242;2022-10-17T03:25:10;48.10;;;24.98;;
64060;SDS011;60147;55.036;73.242;2022-10-17T03:27:36;49.78;;;24.35;;
64060;SDS011;60147;55.036;73.242;2022-10-17T03:30:02;43.67;;;22.65;;
64060;SDS011;60147;55.036;73.242;2022-10-17T03:32:31;52.88;;;23.90;;
64060;SDS011;60147;55.036;73.242;2022-10-17T03:34:57;63.00;;;24.50;;
64060;SDS011;60147;55.036;73.242;2022-10-17T03:37:23;52.50;;;24.88;;
64060;SDS011;60147;55.036;73.242;2022-10-17T03:39:49;53.88;;;22.45;;
64060;SDS011;60147;55.036;73.242;2022-10-17T03:42:15;59.08;;;23.23;;
64060;SDS011;60147;55.036;73.242;2022-10-17T03:44:42;57.80;;;25.63;;
64060;SDS011;60147;55.036;73.242;2022-10-17T03:47:08;58.25;;;25.10;;
64060;SDS011;60147;55.036;73.242;2022-10-17T03:49:44;65.53;;;26.27;;
64060;SDS011;60147;55.036;73.242;2022-10-17T03:52:10;57.13;;;26.00;;
64060;SDS011;60147;55.036;73.242;2022-10-17T03:54:37;70.50;;;29.67;;
64060;SDS011;60147;55.036;73.242;2022-10-17T03:57:03;65.47;;;29.40;;
64060;SDS011;60147;55.036;73.242;2022-10-17T03:59:30;60.35;;;27.90;;
64060;SDS011;60147;55.036;73.242;2022-10-17T04:02:04;73.05;;;30.95;;
64060;SDS011;60147;55.036;73.242;2022-10-17T04:04:30;74.10;;;30.40;;
64060;SDS011;60147;55.036;73.242;2022-10-17T04:06:56;62.70;;;30.70;;
64060;SDS011;60147;55.036;73.242;2022-10-17T04:09:33;67.57;;;28.85;;
64060;SDS011;60147;55.036;73.242;2022-10-17T04:12:05;65.63;;;29.13;;
64060;SDS011;60147;55.036;73.242;2022-10-17T04:14:32;75.70;;;28.85;;
64060;SDS011;60147;55.036;73.242;2022-10-17T04:16:58;61.83;;;28.23;;
64060;SDS011;60147;55.036;73.242;2022-10-17T04:19:26;70.15;;;29.25;;
64060;SDS011;60147;55.036;73.242;2022-10-17T04:21:53;59.60;;;27.35;;
64060;SDS011;60147;55.036;73.242;2022-10-17T04:24:19;55.13;;;25.75;;
64060;SDS011;60147;55.036;73.242;2022-10-17T04:26:51;58.58;;;26.30;;
64060;SDS011;60147;55.036;73.242;2022-10-17T04:29:18;54.03;;;25.27;;
64060;SDS011;60147;55.036;73.242;2022-10-17T04:31:47;54.35;;;25.60;;
64060;SDS011;60147;55.036;73.242;2022-10-17T04:34:19;53.65;;;25.60;;
64060;SDS011;60147;55.036;73.242;2022-10-17T04:36:54;53.78;;;24.00;;
64060;SDS011;60147;55.036;73.242;2022-10-17T04:39:21;40.63;;;19.73;;
64060;SDS011;60147;55.036;73.242;2022-10-17T04:41:47;40.72;;;20.30;;
64060;SDS011;60147;55.036;73.242;2022-10-17T04:44:13;43.45;;;21.20;;
64060;SDS011;60147;55.036;73.242;2022-10-17T04:46:45;42.47;;;20.98;;
64060;SDS011;60147;55.036;73.242;2022-10-17T04:49:11;43.15;;;21.30;;
64060;SDS011;60147;55.036;73.242;2022-10-17T04:51:40;46.53;;;22.27;;
64060;SDS011;60147;55.036;73.242;2022-10-17T04:54:39;44.65;;;22.70;;
64060;SDS011;60147;55.036;73.242;2022-10-17T04:57:08;50.25;;;23.85;;
64060;SDS011;60147;55.036;73.242;2022-10-17T04:59:35;45.45;;;24.58;;
64060;SDS011;60147;55.036;73.242;2022-10-17T05:04:41;41.67;;;22.40;;
64060;SDS011;60147;55.036;73.242;2022-10-17T05:07:09;42.67;;;23.38;;
64060;SDS011;60147;55.036;73.242;2022-10-17T05:09:46;42.42;;;23.63;;
64060;SDS011;60147;55.036;73.242;2022-10-17T05:12:12;44.67;;;24.20;;
64060;SDS011;60147;55.036;73.242;2022-10-17T05:14:41;48.80;;;23.88;;
64060;SDS011;60147;55.036;73.242;2022-10-17T05:17:07;45.40;;;23.55;;
64060;SDS011;60147;55.036;73.242;2022-10-17T05:19:44;49.10;;;23.63;;
64060;SDS011;60147;55.036;73.242;2022-10-17T05:22:10;46.80;;;23.67;;
64060;SDS011;60147;55.036;73.242;2022-10-17T05:24:48;46.03;;;24.23;;
64060;SDS011;60147;55.036;73.242;2022-10-17T05:27:14;43.95;;;22.35;;
64060;SDS011;60147;55.036;73.242;2022-10-17T05:29:40;44.28;;;22.95;;
64060;SDS011;60147;55.036;73.242;2022-10-17T05:32:16;47.55;;;22.55;;
64060;SDS011;60147;55.036;73.242;2022-10-17T05:34:42;38.03;;;19.85;;
64060;SDS011;60147;55.036;73.242;2022-10-17T05:37:09;42.42;;;20.25;;
64060;SDS011;60147;55.036;73.242;2022-10-17T05:39:36;48.05;;;20.90;;
64060;SDS011;60147;55.036;73.242;2022-10-17T05:42:03;44.10;;;19.42;;
64060;SDS011;60147;55.036;73.242;2022-10-17T05:44:28;34.08;;;16.92;;
64060;SDS011;60147;55.036;73.242;2022-10-17T05:46:58;47.40;;;21.70;;
64060;SDS011;60147;55.036;73.242;2022-10-17T05:49:25;36.83;;;18.83;;
64060;SDS011;60147;55.036;73.242;2022-10-17T05:51:52;33.28;;;16.45;;
64060;SDS011;60147;55.036;73.242;2022-10-17T05:54:18;27.67;;;16.42;;
64060;SDS011;60147;55.036;73.242;2022-10-17T05:56:44;28.17;;;15.98;;
64060;SDS011;60147;55.036;73.242;2022-10-17T05:59:10;30.67;;;15.52;;
64060;SDS011;60147;55.036;73.242;2022-10-17T06:01:59;34.15;;;16.85;;
64060;SDS011;60147;55.036;73.242;2022-10-17T06:04:25;30.65;;;14.00;;
64060;SDS011;60147;55.036;73.242;2022-10-17T06:06:53;34.20;;;15.63;;
64060;SDS011;60147;55.036;73.242;2022-10-17T06:09:21;29.52;;;14.65;;
64060;SDS011;60147;55.036;73.242;2022-10-17T06:11:50;26.83;;;13.85;;
64060;SDS011;60147;55.036;73.242;2022-10-17T06:14:16;22.48;;;12.85;;
64060;SDS011;60147;55.036;73.242;2022-10-17T06:16:42;24.77;;;13.30;;
64060;SDS011;60147;55.036;73.242;2022-10-17T06:19:08;20.83;;;12.50;;
64060;SDS011;60147;55.036;73.242;2022-10-17T06:21:36;25.05;;;12.52;;
64060;SDS011;60147;55.036;73.242;2022-10-17T06:24:22;21.30;;;12.23;;
64060;SDS011;60147;55.036;73.242;2022-10-17T06:26:50;23.23;;;11.35;;
64060;SDS011;60147;55.036;73.242;2022-10-17T06:29:18;23.60;;;10.25;;
64060;SDS011;60147;55.036;73.242;2022-10-17T06:31:47;16.98;;;9.38;;
64060;SDS011;60147;55.036;73.242;2022-10-17T06:34:13;21.92;;;10.52;;
64060;SDS011;60147;55.036;73.242;2022-10-17T06:36:40;22.00;;;11.00;;
64060;SDS011;60147;55.036;73.242;2022-10-17T06:39:09;22.13;;;9.63;;
64060;SDS011;60147;55.036;73.242;2022-10-17T06:41:43;22.58;;;11.95;;
64060;SDS011;60147;55.036;73.242;2022-10-17T06:44:10;28.90;;;14.05;;
64060;SDS011;60147;55.036;73.242;2022-10-17T06:47:04;17.50;;;10.90;;
64060;SDS011;60147;55.036;73.242;2022-10-17T06:49:41;18.40;;;10.43;;
64060;SDS011;60147;55.036;73.242;2022-10-17T06:52:32;16.13;;;9.48;;
64060;SDS011;60147;55.036;73.242;2022-10-17T06:55:22;14.13;;;8.70;;
64060;SDS011;60147;55.036;73.242;2022-10-17T06:57:57;16.98;;;9.75;;
64060;SDS011;60147;55.036;73.242;2022-10-17T07:00:46;17.73;;;9.20;;
64060;SDS011;60147;55.036;73.242;2022-10-17T07:03:12;16.13;;;9.40;;
64060;SDS011;60147;55.036;73.242;2022-10-17T07:05:51;14.07;;;9.10;;
64060;SDS011;60147;55.036;73.242;2022-10-17T07:08:17;16.17;;;9.10;;
64060;SDS011;60147;55.036;73.242;2022-10-17T07:10:43;16.45;;;9.38;;
64060;SDS011;60147;55.036;73.242;2022-10-17T07:13:09;16.73;;;8.93;;
64060;SDS011;60147;55.036;73.242;2022-10-17T07:15:38;15.90;;;9.07;;
64060;SDS011;60147;55.036;73.242;2022-10-17T07:18:04;17.25;;;7.72;;
64060;SDS011;60147;55.036;73.242;2022-10-17T07:20:30;17.75;;;8.80;;
64060;SDS011;60147;55.036;73.242;2022-10-17T07:22:56;13.07;;;7.05;;
64060;SDS011;60147;55.036;73.242;2022-10-17T07:25:23;12.68;;;6.75;;
64060;SDS011;60147;55.036;73.242;2022-10-17T07:27:53;9.95;;;5.65;;
64060;SDS011;60147;55.036;73.242;2022-10-17T07:30:20;10.00;;;6.20;;
64060;SDS011;60147;55.036;73.242;2022-10-17T07:32:59;12.50;;;6.10;;
64060;SDS011;60147;55.036;73.242;2022-10-17T07:35:25;10.20;;;5.85;;
64060;SDS011;60147;55.036;73.242;2022-10-17T07:37:51;10.50;;;5.55;;
64060;SDS011;60147;55.036;73.242;2022-10-17T07:40:19;12.00;;;5.82;;
64060;SDS011;60147;55.036;73.242;2022-10-17T07:42:45;12.70;;;6.40;;
64060;SDS011;60147;55.036;73.242;2022-10-17T07:45:11;11.07;;;6.20;;
64060;SDS011;60147;55.036;73.242;2022-10-17T07:47:38;9.15;;;6.10;;
64060;SDS011;60147;55.036;73.242;2022-10-17T07:50:06;9.98;;;6.10;;
64060;SDS011;60147;55.036;73.242;2022-10-17T07:52:32;8.65;;;5.75;;
64060;SDS011;60147;55.036;73.242;2022-10-17T07:54:58;9.90;;;5.20;;
64060;SDS011;60147;55.036;73.242;2022-10-17T07:57:24;12.43;;;6.25;;
64060;SDS011;60147;55.036;73.242;2022-10-17T07:59:50;13.98;;;7.05;;
64060;SDS011;60147;55.036;73.242;2022-10-17T08:02:20;18.38;;;8.52;;
64060;SDS011;60147;55.036;73.242;2022-10-17T08:04:47;13.98;;;7.18;;
64060;SDS011;60147;55.036;73.242;2022-10-17T08:07:13;21.08;;;10.02;;
64060;SDS011;60147;55.036;73.242;2022-10-17T08:09:41;19.15;;;8.43;;
64060;SDS011;60147;55.036;73.242;2022-10-17T08:12:06;12.45;;;5.68;;
64060;SDS011;60147;55.036;73.242;2022-10-17T08:14:32;8.35;;;5.28;;
64060;SDS011;60147;55.036;73.242;2022-10-17T08:16:58;20.63;;;7.32;;
64060;SDS011;60147;55.036;73.242;2022-10-17T08:19:24;14.57;;;7.50;;
64060;SDS011;60147;55.036;73.242;2022-10-17T08:21:50;12.27;;;7.40;;
64060;SDS011;60147;55.036;73.242;2022-10-17T08:24:17;15.27;;;8.63;;
64060;SDS011;60147;55.036;73.242;2022-10-17T08:26:42;8.90;;;4.68;;
64060;SDS011;60147;55.036;73.242;2022-10-17T08:29:12;6.38;;;2.65;;
64060;SDS011;60147;55.036;73.242;2022-10-17T08:31:48;6.00;;;3.10;;
64060;SDS011;60147;55.036;73.242;2022-10-17T08:34:14;6.70;;;3.03;;
64060;SDS011;60147;55.036;73.242;2022-10-17T08:36:40;8.07;;;3.30;;
64060;SDS011;60147;55.036;73.242;2022-10-17T08:39:06;7.13;;;3.60;;
64060;SDS011;60147;55.036;73.242;2022-10-17T08:47:00;10.50;;;4.32;;
64060;SDS011;60147;55.036;73.242;2022-10-17T08:49:38;11.43;;;4.25;;
64060;SDS011;60147;55.036;73.242;2022-10-17T08:55:17;6.50;;;3.58;;
64060;SDS011;60147;55.036;73.242;2022-10-17T08:57:43;7.43;;;3.80;;
64060;SDS011;60147;55.036;73.242;2022-10-17T09:00:17;4.45;;;3.03;;
64060;SDS011;60147;55.036;73.242;2022-10-17T09:02:57;5.35;;;2.40;;
64060;SDS011;60147;55.036;73.242;2022-10-17T09:05:29;4.22;;;2.60;;
64060;SDS011;60147;55.036;73.242;2022-10-17T09:08:04;5.70;;;3.05;;
64060;SDS011;60147;55.036;73.242;2022-10-17T09:18:36;6.78;;;3.50;;
64060;SDS011;60147;55.036;73.242;2022-10-17T09:23:41;6.28;;;3.33;;
64060;SDS011;60147;55.036;73.242;2022-10-17T09:26:19;7.82;;;3.65;;
64060;SDS011;60147;55.036;73.242;2022-10-17T09:28:50;5.25;;;2.63;;
64060;SDS011;60147;55.036;73.242;2022-10-17T09:31:24;4.75;;;2.83;;
64060;SDS011;60147;55.036;73.242;2022-10-17T09:33:53;5.50;;;3.30;;
64060;SDS011;60147;55.036;73.242;2022-10-17T09:36:20;6.43;;;2.97;;
64060;SDS011;60147;55.036;73.242;2022-10-17T09:39:32;4.55;;;2.95;;
64060;SDS011;60147;55.036;73.242;2022-10-17T09:41:38;4.30;;;3.10;;
64060;SDS011;60147;55.036;73.242;2022-10-17T09:44:11;4.25;;;2.92;;
64060;SDS011;60147;55.036;73.242;2022-10-17T09:46:38;4.38;;;2.88;;
64060;SDS011;60147;55.036;73.242;2022-10-17T09:49:12;6.95;;;2.72;;
64060;SDS011;60147;55.036;73.242;2022-10-17T09:51:49;5.13;;;3.22;;
64060;SDS011;60147;55.036;73.242;2022-10-17T09:54:19;7.57;;;3.10;;
64060;SDS011;60147;55.036;73.242;2022-10-17T09:57:19;5.82;;;3.42;;
64060;SDS011;60147;55.036;73.242;2022-10-17T09:59:43;6.60;;;2.20;;
64060;SDS011;60147;55.036;73.242;2022-10-17T10:02:15;6.25;;;2.33;;
64060;SDS011;60147;55.036;73.242;2022-10-17T10:07:20;2.53;;;1.60;;
64060;SDS011;60147;55.036;73.242;2022-10-17T10:09:56;4.95;;;1.83;;
64060;SDS011;60147;55.036;73.242;2022-10-17T10:12:33;2.80;;;1.60;;
64060;SDS011;60147;55.036;73.242;2022-10-17T10:14:59;2.92;;;1.80;;
64060;SDS011;60147;55.036;73.242;2022-10-17T10:17:44;2.47;;;1.60;;
64060;SDS011;60147;55.036;73.242;2022-10-17T10:20:27;2.72;;;1.63;;
64060;SDS011;60147;55.036;73.242;2022-10-17T10:25:34;3.15;;;2.10;;
64060;SDS011;60147;55.036;73.242;2022-10-17T10:28:01;5.47;;;2.40;;
64060;SDS011;60147;55.036;73.242;2022-10-17T10:30:28;6.80;;;2.88;;
64060;SDS011;60147;55.036;73.242;2022-10-17T10:32:55;5.38;;;3.03;;
64060;SDS011;60147;55.036;73.242;2022-10-17T10:35:32;7.28;;;2.67;;
64060;SDS011;60147;55.036;73.242;2022-10-17T10:38:00;6.53;;;2.88;;
64060;SDS011;60147;55.036;73.242;2022-10-17T10:40:29;7.80;;;3.38;;
64060;SDS011;60147;55.036;73.242;2022-10-17T10:42:56;5.72;;;3.28;;
64060;SDS011;60147;55.036;73.242;2022-10-17T10:45:24;5.82;;;3.22;;
64060;SDS011;60147;55.036;73.242;2022-10-17T10:50:20;6.00;;;3.40;;
64060;SDS011;60147;55.036;73.242;2022-10-17T10:57:50;13.73;;;4.65;;
64060;SDS011;60147;55.036;73.242;2022-10-17T11:00:28;17.73;;;7.28;;
64060;SDS011;60147;55.036;73.242;2022-10-17T11:03:12;21.67;;;7.85;;
64060;SDS011;60147;55.036;73.242;2022-10-17T11:05:42;12.68;;;5.13;;
64060;SDS011;60147;55.036;73.242;2022-10-17T11:16:39;5.07;;;1.42;;
64060;SDS011;60147;55.036;73.242;2022-10-17T11:19:26;2.60;;;1.55;;
64060;SDS011;60147;55.036;73.242;2022-10-17T11:22:14;2.97;;;1.70;;
64060;SDS011;60147;55.036;73.242;2022-10-17T11:27:32;4.30;;;1.55;;
64060;SDS011;60147;55.036;73.242;2022-10-17T11:29:58;3.25;;;1.95;;
64060;SDS011;60147;55.036;73.242;2022-10-17T11:32:26;12.02;;;6.75;;
64060;SDS011;60147;55.036;73.242;2022-10-17T11:37:33;12.98;;;5.25;;
64060;SDS011;60147;55.036;73.242;2022-10-17T11:40:05;10.13;;;5.20;;
64060;SDS011;60147;55.036;73.242;2022-10-17T11:42:41;11.30;;;5.60;;
64060;SDS011;60147;55.036;73.242;2022-10-17T11:45:19;29.45;;;18.30;;
64060;SDS011;60147;55.036;73.242;2022-10-17T11:47:48;10.52;;;6.45;;
64060;SDS011;60147;55.036;73.242;2022-10-17T11:50:36;8.77;;;3.80;;
64060;SDS011;60147;55.036;73.242;2022-10-17T11:53:05;5.15;;;2.53;;
64060;SDS011;60147;55.036;73.242;2022-10-17T11:55:33;11.68;;;6.22;;
64060;SDS011;60147;55.036;73.242;2022-10-17T12:13:59;5.30;;;3.08;;
64060;SDS011;60147;55.036;73.242;2022-10-17T12:19:39;6.13;;;2.70;;
64060;SDS011;60147;55.036;73.242;2022-10-17T12:29:50;8.02;;;4.70;;
64060;SDS011;60147;55.036;73.242;2022-10-17T12:32:23;5.13;;;3.38;;
64060;SDS011;60147;55.036;73.242;2022-10-17T12:34:52;4.38;;;2.70;;
64060;SDS011;60147;55.036;73.242;2022-10-17T12:51:03;4.10;;;2.03;;
64060;SDS011;60147;55.036;73.242;2022-10-17T12:56:06;3.67;;;2.10;;
64060;SDS011;60147;55.036;73.242;2022-10-17T12:58:33;3.63;;;2.25;;
64060;SDS011;60147;55.036;73.242;2022-10-17T13:00:59;6.25;;;2.65;;
64060;SDS011;60147;55.036;73.242;2022-10-17T13:03:32;5.13;;;2.90;;
64060;SDS011;60147;55.036;73.242;2022-10-17T13:06:05;6.60;;;2.70;;
64060;SDS011;60147;55.036;73.242;2022-10-17T13:08:36;4.97;;;2.92;;
64060;SDS011;60147;55.036;73.242;2022-10-17T13:11:03;4.88;;;3.03;;
64060;SDS011;60147;55.036;73.242;2022-10-17T13:13:47;5.03;;;2.95;;
64060;SDS011;60147;55.036;73.242;2022-10-17T13:17:19;4.40;;;2.75;;
64060;SDS011;60147;55.036;73.242;2022-10-17T13:19:15;4.35;;;2.30;;
64060;SDS011;60147;55.036;73.242;2022-10-17T13:24:20;4.00;;;2.22;;
64060;SDS011;60147;55.036;73.242;2022-10-17T13:26:47;4.53;;;2.50;;
64060;SDS011;60147;55.036;73.242;2022-10-17T13:29:13;4.03;;;2.53;;
64060;SDS011;60147;55.036;73.242;2022-10-17T13:31:41;5.25;;;2.30;;
64060;SDS011;60147;55.036;73.242;2022-10-17T13:34:17;6.28;;;3.05;;
64060;SDS011;60147;55.036;73.242;2022-10-17T13:36:55;4.63;;;3.20;;
64060;SDS011;60147;55.036;73.242;2022-10-17T13:39:22;5.65;;;3.20;;
64060;SDS011;60147;55.036;73.242;2022-10-17T13:41:49;6.28;;;3.10;;
64060;SDS011;60147;55.036;73.242;2022-10-17T13:44:17;5.43;;;3.20;;
64060;SDS011;60147;55.036;73.242;2022-10-17T13:46:54;6.53;;;3.65;;
64060;SDS011;60147;55.036;73.242;2022-10-17T13:52:06;5.88;;;3.70;;
64060;SDS011;60147;55.036;73.242;2022-10-17T13:54:39;6.13;;;3.60;;
64060;SDS011;60147;55.036;73.242;2022-10-17T13:57:15;7.93;;;3.72;;
64060;SDS011;60147;55.036;73.242;2022-10-17T13:59:41;8.88;;;4.68;;
64060;SDS011;60147;55.036;73.242;2022-10-17T14:02:16;8.67;;;4.90;;
64060;SDS011;60147;55.036;73.242;2022-10-17T14:04:43;7.07;;;4.53;;
64060;SDS011;60147;55.036;73.242;2022-10-17T14:07:20;10.48;;;3.80;;
64060;SDS011;60147;55.036;73.242;2022-10-17T14:09:53;7.22;;;4.00;;
64060;SDS011;60147;55.036;73.242;2022-10-17T14:12:19;6.07;;;4.05;;
64060;SDS011;60147;55.036;73.242;2022-10-17T14:14:46;7.32;;;3.97;;
64060;SDS011;60147;55.036;73.242;2022-10-17T14:17:28;7.88;;;3.75;;
64060;SDS011;60147;55.036;73.242;2022-10-17T14:20:01;7.65;;;3.88;;
64060;SDS011;60147;55.036;73.242;2022-10-17T14:22:32;5.40;;;3.40;;
64060;SDS011;60147;55.036;73.242;2022-10-17T14:25:00;5.22;;;3.10;;
64060;SDS011;60147;55.036;73.242;2022-10-17T14:30:45;4.88;;;2.80;;
64060;SDS011;60147;55.036;73.242;2022-10-17T14:32:55;6.55;;;3.88;;
64060;SDS011;60147;55.036;73.242;2022-10-17T14:35:22;5.60;;;3.72;;
64060;SDS011;60147;55.036;73.242;2022-10-17T14:37:49;5.68;;;3.38;;
64060;SDS011;60147;55.036;73.242;2022-10-17T14:40:21;5.35;;;3.30;;
64060;SDS011;60147;55.036;73.242;2022-10-17T14:42:50;4.13;;;2.90;;
64060;SDS011;60147;55.036;73.242;2022-10-17T14:45:25;4.32;;;2.88;;
64060;SDS011;60147;55.036;73.242;2022-10-17T14:47:52;13.30;;;6.20;;
64060;SDS011;60147;55.036;73.242;2022-10-17T14:50:21;26.73;;;11.07;;
64060;SDS011;60147;55.036;73.242;2022-10-17T14:55:33;26.33;;;10.88;;
64060;SDS011;60147;55.036;73.242;2022-10-17T14:58:18;14.15;;;6.60;;
64060;SDS011;60147;55.036;73.242;2022-10-17T15:00:47;8.27;;;4.38;;
64060;SDS011;60147;55.036;73.242;2022-10-17T15:03:13;6.53;;;3.95;;
64060;SDS011;60147;55.036;73.242;2022-10-17T15:05:44;7.53;;;4.18;;
64060;SDS011;60147;55.036;73.242;2022-10-17T15:08:21;5.70;;;3.25;;
64060;SDS011;60147;55.036;73.242;2022-10-17T15:10:49;6.75;;;3.63;;
64060;SDS011;60147;55.036;73.242;2022-10-17T15:13:15;7.40;;;3.45;;
64060;SDS011;60147;55.036;73.242;2022-10-17T15:15:46;6.47;;;3.55;;
64060;SDS011;60147;55.036;73.242;2022-10-17T15:18:16;8.07;;;4.68;;
64060;SDS011;60147;55.036;73.242;2022-10-17T15:20:47;13.07;;;5.80;;
64060;SDS011;60147;55.036;73.242;2022-10-17T15:23:13;14.48;;;7.28;;
64060;SDS011;60147;55.036;73.242;2022-10-17T15:25:39;13.07;;;6.75;;
64060;SDS011;60147;55.036;73.242;2022-10-17T15:28:05;13.20;;;7.13;;
64060;SDS011;60147;55.036;73.242;2022-10-17T15:30:33;12.82;;;5.70;;
64060;SDS011;60147;55.036;73.242;2022-10-17T15:33:05;6.30;;;4.30;;
64060;SDS011;60147;55.036;73.242;2022-10-17T15:35:31;7.10;;;4.65;;
64060;SDS011;60147;55.036;73.242;2022-10-17T15:38:05;9.35;;;4.55;;
64060;SDS011;60147;55.036;73.242;2022-10-17T15:40:31;6.00;;;4.13;;
64060;SDS011;60147;55.036;73.242;2022-10-17T15:43:02;6.28;;;4.15;;
64060;SDS011;60147;55.036;73.242;2022-10-17T15:45:28;6.82;;;3.38;;
64060;SDS011;60147;55.036;73.242;2022-10-17T15:47:55;6.78;;;3.70;;
64060;SDS011;60147;55.036;73.242;2022-10-17T15:50:21;7.80;;;4.10;;
64060;SDS011;60147;55.036;73.242;2022-10-17T15:52:53;8.82;;;4.97;;
64060;SDS011;60147;55.036;73.242;2022-10-17T15:55:19;7.20;;;3.95;;
64060;SDS011;60147;55.036;73.242;2022-10-17T15:57:55;7.05;;;4.18;;
64060;SDS011;60147;55.036;73.242;2022-10-17T16:00:26;7.22;;;3.88;;
64060;SDS011;60147;55.036;73.242;2022-10-17T16:02:57;8.15;;;4.15;;
64060;SDS011;60147;55.036;73.242;2022-10-17T16:05:24;6.32;;;3.45;;
64060;SDS011;60147;55.036;73.242;2022-10-17T16:07:53;7.15;;;3.45;;
64060;SDS011;60147;55.036;73.242;2022-10-17T16:10:19;6.32;;;3.97;;
64060;SDS011;60147;55.036;73.242;2022-10-17T16:12:55;6.03;;;3.17;;
64060;SDS011;60147;55.036;73.242;2022-10-17T16:15:22;5.85;;;3.22;;
64060;SDS011;60147;55.036;73.242;2022-10-17T16:17:49;5.88;;;3.53;;
64060;SDS011;60147;55.036;73.242;2022-10-17T16:20:15;4.68;;;3.05;;
64060;SDS011;60147;55.036;73.242;2022-10-17T16:22:50;4.18;;;2.88;;
64060;SDS011;60147;55.036;73.242;2022-10-17T16:25:24;4.40;;;2.90;;
64060;SDS011;60147;55.036;73.242;2022-10-17T16:27:51;6.97;;;2.90;;
64060;SDS011;60147;55.036;73.242;2022-10-17T16:30:26;4.18;;;2.75;;
64060;SDS011;60147;55.036;73.242;2022-10-17T16:32:52;5.78;;;2.97;;
64060;SDS011;60147;55.036;73.242;2022-10-17T16:35:27;5.78;;;3.30;;
64060;SDS011;60147;55.036;73.242;2022-10-17T16:37:54;5.68;;;3.47;;
64060;SDS011;60147;55.036;73.242;2022-10-17T16:40:21;9.73;;;3.78;;
64060;SDS011;60147;55.036;73.242;2022-10-17T16:42:50;6.30;;;3.42;;
64060;SDS011;60147;55.036;73.242;2022-10-17T16:45:17;4.97;;;2.83;;
64060;SDS011;60147;55.036;73.242;2022-10-17T16:47:43;6.95;;;3.63;;
64060;SDS011;60147;55.036;73.242;2022-10-17T16:50:15;4.97;;;3.40;;
64060;SDS011;60147;55.036;73.242;2022-10-17T16:52:44;5.70;;;3.28;;
64060;SDS011;60147;55.036;73.242;2022-10-17T16:55:10;5.82;;;3.47;;
64060;SDS011;60147;55.036;73.242;2022-10-17T16:57:46;4.90;;;3.33;;
64060;SDS011;60147;55.036;73.242;2022-10-17T17:00:13;4.53;;;2.80;;